createdAt,value
2018-07-04T00:02:25.884Z,1.60
2018-07-04T00:05:10.341Z,1.50
2018-07-04T00:07:54.783Z,1.40
2018-07-04T00:10:39.186Z,1.37
2018-07-04T00:13:23.823Z,1.70
2018-07-04T00:16:08.303Z,1.57
2018-07-04T00:18:52.726Z,1.60
2018-07-04T00:21:37.266Z,1.60
2018-07-04T00:24:21.851Z,1.90
2018-07-04T00:27:06.404Z,1.70
2018-07-04T00:29:50.958Z,1.60
2018-07-04T00:32:35.516Z,1.77
2018-07-04T00:35:19.947Z,1.50
2018-07-04T00:38:04.487Z,1.70
2018-07-04T00:40:48.813Z,1.87
2018-07-04T00:43:33.337Z,1.63
2018-07-04T00:46:17.876Z,1.60
2018-07-04T00:49:02.487Z,1.60
2018-07-04T00:51:46.986Z,2.03
2018-07-04T00:54:31.419Z,1.67
2018-07-04T00:57:18.955Z,1.73
2018-07-04T01:00:03.388Z,1.73
2018-07-04T01:02:47.834Z,2.00
2018-07-04T01:05:32.378Z,1.60
2018-07-04T01:08:16.990Z,1.80
2018-07-04T01:11:01.634Z,1.80
2018-07-04T01:13:46.113Z,1.80
2018-07-04T01:16:30.538Z,2.07
2018-07-04T01:19:14.981Z,1.50
2018-07-04T01:21:59.419Z,1.77
2018-07-04T01:24:43.868Z,1.40
2018-07-04T01:27:28.578Z,1.70
2018-07-04T01:30:13.225Z,1.40
2018-07-04T01:32:57.778Z,1.53
2018-07-04T01:35:42.171Z,1.70
2018-07-04T01:38:26.719Z,1.77
2018-07-04T01:41:11.230Z,1.57
2018-07-04T01:43:56.459Z,1.80
2018-07-04T01:46:41.023Z,2.00
2018-07-04T01:49:25.599Z,1.80
2018-07-04T01:52:09.887Z,1.83
2018-07-04T01:54:54.402Z,1.80
2018-07-04T01:57:39.022Z,1.60
2018-07-04T02:00:23.713Z,1.60
2018-07-04T02:03:08.267Z,1.90
2018-07-04T02:05:52.767Z,2.10
2018-07-04T02:08:37.215Z,1.80
2018-07-04T02:11:21.566Z,1.90
2018-07-04T02:14:05.976Z,1.80
2018-07-04T02:16:50.461Z,1.90
2018-07-04T02:19:34.900Z,1.63
2018-07-04T02:22:19.302Z,1.60
2018-07-04T02:25:03.754Z,1.63
2018-07-04T02:27:48.205Z,1.87
2018-07-04T02:30:32.628Z,1.77
2018-07-04T02:33:17.111Z,1.70
2018-07-04T02:36:02.529Z,2.07
2018-07-04T02:38:47.148Z,1.73
2018-07-04T02:41:31.843Z,2.27
2018-07-04T02:44:16.403Z,2.20
2018-07-04T02:47:00.787Z,2.00
2018-07-04T02:49:45.207Z,2.00
2018-07-04T02:52:29.637Z,2.10
2018-07-04T02:55:14.162Z,2.17
2018-07-04T02:57:58.632Z,2.30
2018-07-04T03:00:43.240Z,2.20
2018-07-04T03:03:27.725Z,2.10
2018-07-04T03:06:12.172Z,2.30
2018-07-04T03:08:56.710Z,1.97
2018-07-04T03:11:41.164Z,2.83
2018-07-04T03:14:25.826Z,2.30
2018-07-04T03:17:10.401Z,2.73
2018-07-04T03:19:54.765Z,2.20
2018-07-04T03:22:39.535Z,2.70
2018-07-04T03:25:24.087Z,2.30
2018-07-04T03:28:08.762Z,2.27
2018-07-04T03:30:53.368Z,2.33
2018-07-04T03:33:38.011Z,2.57
2018-07-04T03:36:22.539Z,2.80
2018-07-04T03:39:07.553Z,2.77
2018-07-04T03:41:52.134Z,2.27
2018-07-04T03:44:36.732Z,2.03
2018-07-04T03:47:21.366Z,2.57
2018-07-04T03:50:05.851Z,2.20
2018-07-04T03:52:50.338Z,2.60
2018-07-04T03:55:34.876Z,2.40
2018-07-04T03:58:19.266Z,2.53
2018-07-04T04:01:03.597Z,2.30
2018-07-04T04:03:48.202Z,3.00
2018-07-04T04:06:33.085Z,2.63
2018-07-04T04:09:17.469Z,3.17
2018-07-04T04:12:01.894Z,3.17
2018-07-04T04:14:46.588Z,3.73
2018-07-04T04:17:31.123Z,2.93
2018-07-04T04:20:15.683Z,2.90
2018-07-04T04:23:00.110Z,2.70
2018-07-04T04:25:44.715Z,3.10
2018-07-04T04:28:29.266Z,2.53
2018-07-04T04:31:13.749Z,3.70
2018-07-04T04:33:58.344Z,3.23
2018-07-04T04:36:42.832Z,3.50
2018-07-04T04:39:27.460Z,3.53
2018-07-04T04:42:11.887Z,3.70
2018-07-04T04:44:57.295Z,3.93
2018-07-04T04:47:41.649Z,3.50
2018-07-04T04:50:26.293Z,3.50
2018-07-04T04:53:10.682Z,3.50
2018-07-04T04:55:55.191Z,3.27
2018-07-04T04:58:39.812Z,5.83
2018-07-04T05:01:24.320Z,6.40
2018-07-04T05:04:08.858Z,5.30
2018-07-04T05:06:53.395Z,4.07
2018-07-04T05:09:37.963Z,3.60
2018-07-04T05:12:22.423Z,4.53
2018-07-04T05:15:07.028Z,3.87
2018-07-04T05:17:45.596Z,3.77
2018-07-04T05:20:30.199Z,4.47
2018-07-04T05:23:14.740Z,4.40
2018-07-04T05:25:59.244Z,5.50
2018-07-04T05:28:43.711Z,4.50
2018-07-04T05:31:28.238Z,4.97
2018-07-04T05:34:12.762Z,5.03
2018-07-04T05:36:57.262Z,5.27
2018-07-04T05:39:41.802Z,4.10
2018-07-04T05:42:26.274Z,3.93
2018-07-04T05:45:10.687Z,4.40
2018-07-04T05:47:55.212Z,4.93
2018-07-04T05:50:39.792Z,3.77
2018-07-04T05:53:24.179Z,10.77
2018-07-04T05:56:08.703Z,4.60
2018-07-04T05:58:53.140Z,4.00
2018-07-04T06:01:37.680Z,5.53
2018-07-04T06:04:22.192Z,7.87
2018-07-04T06:07:06.700Z,6.43
2018-07-04T06:09:51.276Z,4.77
2018-07-04T06:12:35.622Z,6.60
2018-07-04T06:15:20.088Z,7.27
2018-07-04T06:18:04.574Z,3.07
2018-07-04T06:20:49.059Z,7.80
2018-07-04T06:23:33.551Z,3.87
2018-07-04T06:26:18.128Z,5.70
2018-07-04T06:29:02.755Z,5.20
2018-07-04T06:31:47.405Z,3.47
2018-07-04T06:34:31.937Z,3.90
2018-07-04T06:37:16.387Z,3.57
2018-07-04T06:39:48.544Z,3.23
2018-07-04T06:42:20.686Z,3.33
2018-07-04T06:44:52.860Z,2.43
2018-07-04T06:47:25.475Z,2.57
2018-07-04T06:49:57.644Z,3.10
2018-07-04T06:52:29.864Z,2.70
2018-07-04T06:55:02.012Z,2.97
2018-07-04T06:57:34.195Z,3.53
2018-07-04T07:00:06.403Z,3.57
2018-07-04T07:02:38.562Z,3.37
2018-07-04T07:05:23.166Z,2.73
2018-07-04T07:08:07.590Z,2.10
2018-07-04T07:10:52.065Z,2.37
2018-07-04T07:13:37.063Z,2.57
2018-07-04T07:16:21.777Z,3.60
2018-07-04T07:19:06.224Z,2.23
2018-07-04T07:21:50.658Z,2.10
2018-07-04T07:24:35.112Z,2.07
2018-07-04T07:27:19.747Z,2.20
2018-07-04T07:30:04.392Z,2.20
2018-07-04T07:32:48.799Z,2.20
2018-07-04T07:35:33.391Z,2.10
2018-07-04T07:38:17.830Z,2.40
2018-07-04T07:41:02.424Z,2.13
2018-07-04T07:43:46.995Z,1.80
2018-07-04T07:46:31.434Z,2.00
2018-07-04T07:49:15.864Z,1.83
2018-07-04T07:52:01.232Z,1.90
2018-07-04T07:54:45.875Z,2.30
2018-07-04T07:57:30.443Z,2.10
2018-07-04T08:00:15.033Z,2.27
2018-07-04T08:02:59.575Z,1.73
2018-07-04T08:05:44.007Z,1.77
2018-07-04T08:08:28.423Z,1.40
2018-07-04T08:11:12.980Z,1.70
2018-07-04T08:13:57.377Z,1.63
2018-07-04T08:16:42.004Z,1.80
2018-07-04T08:19:26.429Z,2.03
2018-07-04T08:22:10.732Z,2.00
2018-07-04T08:24:55.186Z,1.70
2018-07-04T08:27:39.731Z,1.50
2018-07-04T08:30:24.043Z,1.67
2018-07-04T08:33:08.414Z,1.50
2018-07-04T08:35:52.976Z,1.50
2018-07-04T08:38:37.411Z,1.53
2018-07-04T08:41:21.851Z,1.47
2018-07-04T08:44:06.274Z,1.33
2018-07-04T08:46:50.655Z,1.80
2018-07-04T08:49:35.240Z,1.70
2018-07-04T08:52:19.631Z,1.67
2018-07-04T08:55:04.031Z,1.60
2018-07-04T08:57:48.438Z,1.87
2018-07-04T09:00:32.877Z,1.80
2018-07-04T09:03:17.230Z,2.03
2018-07-04T09:06:01.644Z,2.27
2018-07-04T09:08:46.112Z,1.60
2018-07-04T09:11:30.807Z,1.83
2018-07-04T09:14:15.439Z,1.70
2018-07-04T09:17:00.035Z,1.87
2018-07-04T09:19:44.622Z,1.87
2018-07-04T09:22:29.228Z,1.50
2018-07-04T09:25:13.827Z,1.90
2018-07-04T09:27:58.439Z,1.77
2018-07-04T09:30:42.853Z,1.80
2018-07-04T09:33:27.392Z,1.50
2018-07-04T09:36:11.913Z,1.63
2018-07-04T09:38:56.478Z,1.40
2018-07-04T09:41:41.031Z,1.70
2018-07-04T09:44:25.558Z,1.53
2018-07-04T09:47:10.138Z,1.70
2018-07-04T09:49:54.756Z,1.80
2018-07-04T09:52:39.215Z,1.60
2018-07-04T09:55:23.699Z,7.23
2018-07-04T09:58:12.108Z,1.77
2018-07-04T10:01:02.004Z,1.27
2018-07-04T10:03:46.545Z,1.60
2018-07-04T10:06:31.015Z,1.53
2018-07-04T10:09:15.552Z,1.47
2018-07-04T10:12:00.001Z,1.57
2018-07-04T10:14:44.502Z,1.30
2018-07-04T10:17:28.856Z,1.40
2018-07-04T10:20:07.429Z,1.63
2018-07-04T10:22:52.065Z,1.40
2018-07-04T10:25:36.575Z,1.43
2018-07-04T10:28:21.226Z,1.57
2018-07-04T10:31:05.573Z,1.50
2018-07-04T10:33:50.000Z,1.20
2018-07-04T10:36:34.428Z,1.60
2018-07-04T10:39:18.848Z,1.27
2018-07-04T10:42:03.356Z,1.30
2018-07-04T10:44:47.986Z,1.33
2018-07-04T10:47:32.410Z,1.43
2018-07-04T10:50:16.854Z,1.33
2018-07-04T10:53:01.197Z,1.20
2018-07-04T10:55:45.628Z,1.23
2018-07-04T10:58:30.188Z,1.10
2018-07-04T11:01:14.748Z,0.90
2018-07-04T11:03:59.284Z,0.90
2018-07-04T11:06:43.645Z,1.27
2018-07-04T11:09:28.023Z,0.93
2018-07-04T11:12:12.426Z,1.10
2018-07-04T11:14:57.318Z,1.10
2018-07-04T11:17:41.857Z,1.10
2018-07-04T11:20:26.239Z,1.13
2018-07-04T11:23:10.790Z,1.30
2018-07-04T11:25:55.294Z,1.47
2018-07-04T11:28:39.868Z,1.10
2018-07-04T11:31:24.238Z,1.03
2018-07-04T11:34:08.648Z,1.20
2018-07-04T11:36:52.935Z,1.30
2018-07-04T11:39:37.461Z,1.17
2018-07-04T11:42:21.801Z,1.20
2018-07-04T11:45:06.279Z,1.23
2018-07-04T11:47:38.478Z,1.67
2018-07-04T11:50:10.649Z,1.60
2018-07-04T11:52:42.805Z,1.73
2018-07-04T11:55:14.983Z,1.30
2018-07-04T11:57:47.127Z,1.20
2018-07-04T12:00:19.284Z,0.93
2018-07-04T12:02:51.509Z,1.07
2018-07-04T12:05:36.044Z,0.90
2018-07-04T12:08:08.459Z,1.27
2018-07-04T12:10:40.635Z,1.30
2018-07-04T12:13:12.811Z,1.73
2018-07-04T12:15:45.024Z,1.30
2018-07-04T12:18:17.191Z,1.07
2018-07-04T12:20:49.361Z,1.10
2018-07-04T12:23:21.535Z,1.37
2018-07-04T12:25:53.692Z,1.00
2018-07-04T12:28:25.843Z,1.00
2018-07-04T12:30:57.995Z,1.10
2018-07-04T12:33:30.145Z,0.97
2018-07-04T12:36:02.311Z,1.30
2018-07-04T12:38:34.467Z,1.17
2018-07-04T12:41:06.623Z,1.23
2018-07-04T12:43:38.808Z,1.50
2018-07-04T12:46:10.930Z,1.30
2018-07-04T12:48:43.075Z,0.93
2018-07-04T12:51:15.225Z,1.27
2018-07-04T12:53:47.449Z,1.00
2018-07-04T12:56:31.991Z,1.10
2018-07-04T12:59:16.397Z,1.23
2018-07-04T13:02:01.477Z,1.20
2018-07-04T13:04:46.425Z,1.30
2018-07-04T13:07:30.876Z,1.10
2018-07-04T13:10:15.173Z,1.20
2018-07-04T13:12:59.758Z,1.10
2018-07-04T13:15:44.324Z,1.30
2018-07-04T13:18:28.884Z,1.00
2018-07-04T13:21:13.437Z,1.00
2018-07-04T13:23:57.903Z,1.30
2018-07-04T13:26:42.327Z,1.30
2018-07-04T13:29:26.828Z,1.40
2018-07-04T13:32:11.355Z,1.00
2018-07-04T13:34:55.742Z,1.10
2018-07-04T13:37:40.342Z,1.30
2018-07-04T13:40:24.707Z,1.40
2018-07-04T13:43:09.194Z,1.20
2018-07-04T13:45:53.655Z,1.10
2018-07-04T13:48:38.003Z,1.10
2018-07-04T13:51:22.288Z,1.20
2018-07-04T13:54:06.597Z,1.00
2018-07-04T13:56:50.962Z,1.03
2018-07-04T13:59:35.300Z,1.20
2018-07-04T14:02:19.806Z,1.03
2018-07-04T14:05:04.345Z,0.90
2018-07-04T14:07:48.600Z,1.30
2018-07-04T14:10:33.006Z,1.30
2018-07-04T14:13:17.567Z,0.87
2018-07-04T14:16:01.959Z,1.10
2018-07-04T14:18:46.267Z,1.27
2018-07-04T14:21:30.824Z,1.20
2018-07-04T14:24:15.361Z,1.30
2018-07-04T14:26:59.730Z,1.10
2018-07-04T14:29:44.053Z,1.10
2018-07-04T14:32:28.373Z,1.00
2018-07-04T14:35:12.847Z,1.10
2018-07-04T14:37:51.229Z,1.10
2018-07-04T14:40:35.631Z,1.10
2018-07-04T14:43:20.212Z,1.10
2018-07-04T14:46:04.780Z,1.20
2018-07-04T14:48:49.227Z,1.20
2018-07-04T14:51:33.608Z,1.17
2018-07-04T14:54:12.147Z,1.20
2018-07-04T14:56:56.689Z,1.50
2018-07-04T14:59:41.171Z,1.17
2018-07-04T15:02:25.719Z,1.10
2018-07-04T15:05:10.194Z,1.20
2018-07-04T15:07:54.635Z,1.50
2018-07-04T15:10:38.968Z,1.30
2018-07-04T15:13:23.399Z,1.23
2018-07-04T15:16:09.612Z,1.30
2018-07-04T15:18:52.316Z,1.20
2018-07-04T15:21:36.753Z,1.20
2018-07-04T15:24:21.190Z,1.50
2018-07-04T15:27:05.804Z,1.50
2018-07-04T15:29:50.310Z,1.10
2018-07-04T15:32:34.908Z,1.10
2018-07-04T15:35:20.327Z,1.67
2018-07-04T15:38:04.706Z,1.43
2018-07-04T15:40:49.098Z,1.43
2018-07-04T15:43:33.549Z,1.40
2018-07-04T15:46:18.214Z,1.40
2018-07-04T15:49:02.798Z,1.20
2018-07-04T15:51:47.408Z,1.30
2018-07-04T15:54:31.887Z,1.27
2018-07-04T15:57:16.633Z,1.40
2018-07-04T16:00:01.149Z,1.60
2018-07-04T16:02:45.801Z,1.47
2018-07-04T16:05:30.344Z,1.63
2018-07-04T16:08:14.849Z,1.67
2018-07-04T16:10:59.495Z,1.23
2018-07-04T16:13:44.018Z,1.53
2018-07-04T16:16:28.525Z,1.27
2018-07-04T16:19:12.876Z,1.40
2018-07-04T16:21:57.454Z,1.13
2018-07-04T16:24:41.915Z,1.40
2018-07-04T16:27:26.476Z,1.47
2018-07-04T16:30:10.959Z,1.37
2018-07-04T16:32:55.455Z,1.50
2018-07-04T16:35:39.925Z,1.50
2018-07-04T16:38:24.455Z,1.50
2018-07-04T16:41:09.022Z,1.50
2018-07-04T16:43:53.708Z,1.50
2018-07-04T16:46:38.311Z,1.47
2018-07-04T16:49:22.724Z,1.80
2018-07-04T16:52:07.114Z,1.40
2018-07-04T16:54:51.520Z,4.47
2018-07-04T16:57:35.991Z,1.40
2018-07-04T17:00:20.461Z,1.50
2018-07-04T17:03:05.023Z,1.50
2018-07-04T17:05:49.442Z,1.27
2018-07-04T17:08:33.960Z,1.50
2018-07-04T17:11:18.552Z,1.33
2018-07-04T17:14:02.895Z,1.60
2018-07-04T17:16:47.319Z,1.33
2018-07-04T17:19:31.873Z,2.23
2018-07-04T17:22:16.228Z,1.67
2018-07-04T17:25:00.552Z,1.57
2018-07-04T17:27:45.082Z,2.10
2018-07-04T17:30:29.527Z,1.30
2018-07-04T17:33:13.900Z,1.50
2018-07-04T17:35:58.245Z,1.60
2018-07-04T17:38:36.835Z,1.60
2018-07-04T17:41:21.416Z,1.60
2018-07-04T17:44:05.840Z,1.40
2018-07-04T17:46:50.337Z,1.43
2018-07-04T17:49:34.732Z,1.50
2018-07-04T17:52:19.307Z,1.60
2018-07-04T17:55:03.855Z,1.53
2018-07-04T17:57:48.482Z,1.73
2018-07-04T18:00:32.939Z,1.63
2018-07-04T18:03:17.557Z,1.70
2018-07-04T18:06:02.170Z,1.87
2018-07-04T18:08:46.707Z,1.43
2018-07-04T18:11:31.165Z,1.30
2018-07-04T18:14:15.601Z,1.47
2018-07-04T18:16:59.971Z,1.57
2018-07-04T18:19:44.607Z,2.17
2018-07-04T18:22:29.242Z,3.73
2018-07-04T18:25:13.720Z,1.73
2018-07-04T18:27:58.162Z,1.50
2018-07-04T18:30:42.659Z,1.60
2018-07-04T18:33:27.269Z,1.90
2018-07-04T18:36:11.931Z,1.57
2018-07-04T18:38:56.532Z,1.70
2018-07-04T18:41:41.009Z,1.50
2018-07-04T18:44:25.417Z,1.90
2018-07-04T18:47:10.097Z,1.83
2018-07-04T18:49:54.652Z,1.80
2018-07-04T18:52:39.117Z,1.90
2018-07-04T18:55:23.482Z,1.90
2018-07-04T18:58:07.899Z,1.87
2018-07-04T19:00:52.302Z,1.70
2018-07-04T19:03:36.813Z,1.57
2018-07-04T19:06:21.483Z,2.00
2018-07-04T19:09:06.458Z,1.80
2018-07-04T19:11:50.928Z,2.07
2018-07-04T19:14:35.455Z,2.20
2018-07-04T19:17:19.955Z,1.80
2018-07-04T19:20:04.385Z,1.70
2018-07-04T19:22:48.783Z,1.80
2018-07-04T19:25:33.386Z,1.80
2018-07-04T19:28:18.039Z,1.90
2018-07-04T19:31:02.587Z,1.77
2018-07-04T19:33:47.063Z,2.33
2018-07-04T19:36:31.582Z,2.47
2018-07-04T19:39:15.953Z,1.90
2018-07-04T19:41:54.469Z,2.10
2018-07-04T19:44:38.837Z,1.77
2018-07-04T19:47:23.302Z,2.37
2018-07-04T19:50:07.731Z,1.60
2018-07-04T19:52:52.207Z,1.83
2018-07-04T19:55:36.683Z,1.80
2018-07-04T19:58:21.064Z,1.80
2018-07-04T20:01:05.539Z,2.53
2018-07-04T20:03:50.081Z,1.83
2018-07-04T20:06:34.593Z,1.90
2018-07-04T20:09:19.106Z,1.83
2018-07-04T20:12:03.663Z,1.93
2018-07-04T20:14:48.190Z,1.60
2018-07-04T20:17:32.689Z,1.70
2018-07-04T20:20:17.311Z,1.50
2018-07-04T20:23:01.755Z,1.60
2018-07-04T20:25:46.082Z,1.77
2018-07-04T20:28:30.808Z,1.60
2018-07-04T20:31:15.530Z,1.90
2018-07-04T20:33:54.023Z,2.27
2018-07-04T20:36:38.583Z,2.00
2018-07-04T20:39:23.032Z,1.90
2018-07-04T20:42:07.535Z,1.70
2018-07-04T20:44:52.106Z,1.87
2018-07-04T20:47:36.723Z,2.03
2018-07-04T20:50:21.343Z,1.83
2018-07-04T20:53:05.947Z,2.10
2018-07-04T20:55:50.623Z,2.10
2018-07-04T20:58:35.216Z,1.73
2018-07-04T21:01:19.689Z,2.10
2018-07-04T21:04:04.068Z,2.27
2018-07-04T21:06:48.626Z,2.07
2018-07-04T21:09:33.410Z,2.00
2018-07-04T21:12:17.879Z,1.90
2018-07-04T21:15:02.482Z,1.90
2018-07-04T21:17:47.193Z,2.10
2018-07-04T21:20:31.856Z,1.90
2018-07-04T21:23:16.351Z,2.00
2018-07-04T21:26:00.906Z,2.57
2018-07-04T21:28:45.390Z,2.37
2018-07-04T21:31:29.786Z,2.10
2018-07-04T21:34:08.305Z,2.00
2018-07-04T21:36:52.873Z,2.10
2018-07-04T21:39:37.304Z,2.00
2018-07-04T21:42:21.813Z,2.07
2018-07-04T21:45:06.316Z,2.10
2018-07-04T21:47:50.879Z,2.30
2018-07-04T21:50:35.526Z,2.00
2018-07-04T21:53:20.126Z,2.27
2018-07-04T21:56:04.827Z,2.40
2018-07-04T21:58:49.291Z,2.30
2018-07-04T22:01:33.801Z,2.30
2018-07-04T22:04:18.881Z,2.10
2018-07-04T22:07:03.459Z,2.40
2018-07-04T22:09:48.000Z,2.30
2018-07-04T22:12:32.387Z,2.13
2018-07-04T22:15:16.842Z,3.00
2018-07-04T22:18:01.394Z,2.50
2018-07-04T22:20:46.015Z,2.23
2018-07-04T22:23:30.593Z,2.43
2018-07-04T22:26:14.987Z,2.37
2018-07-04T22:28:59.460Z,2.30
2018-07-04T22:31:43.971Z,2.10
2018-07-04T22:34:28.547Z,2.37
2018-07-04T22:37:13.103Z,2.40
2018-07-04T22:39:57.420Z,2.73
2018-07-04T22:42:41.845Z,2.50
2018-07-04T22:45:26.419Z,2.40
2018-07-04T22:48:10.848Z,2.70
2018-07-04T22:50:55.564Z,2.90
2018-07-04T22:53:40.160Z,2.80
2018-07-04T22:56:24.743Z,2.83
2018-07-04T22:59:09.155Z,3.20
2018-07-04T23:01:53.788Z,3.23
2018-07-04T23:04:38.483Z,3.57
2018-07-04T23:07:23.093Z,3.17
2018-07-04T23:10:07.635Z,3.17
2018-07-04T23:12:52.028Z,3.60
2018-07-04T23:15:36.510Z,3.07
2018-07-04T23:18:21.112Z,3.23
2018-07-04T23:21:06.369Z,3.43
2018-07-04T23:23:51.036Z,3.27
2018-07-04T23:26:35.577Z,3.37
2018-07-04T23:29:19.907Z,3.20
2018-07-04T23:32:04.676Z,3.57
2018-07-04T23:34:49.333Z,3.10
2018-07-04T23:37:33.839Z,3.60
2018-07-04T23:40:18.434Z,3.70
2018-07-04T23:43:03.011Z,3.40
2018-07-04T23:45:47.517Z,3.77
2018-07-04T23:48:31.992Z,3.50
2018-07-04T23:51:16.751Z,3.53
2018-07-04T23:54:01.236Z,3.60
2018-07-04T23:56:45.883Z,3.50
2018-07-04T23:59:30.603Z,4.20
